Time;durP1;ratioP1;P1;durP2;ratioP2;P2;SDS_P1;SDS_P2;PMS_P1;PMS_P2;Temp;Humidity;BMP_temperature;BMP_pressure;BME280_temperature;BME280_humidity;BME280_pressure;Samples;Min_cycle;Max_cycle;Signal;HPM_P1;HPM_P2
2022/07/25 00:01:18;;;;;;;3.97;3.77;;;27.10;76.10;;;;;;5053421;28;20533;-89
2022/07/25 00:03:45;;;;;;;4.07;3.80;;;27.10;76.20;;;;;;5053490;28;20481;-90
2022/07/25 00:06:12;;;;;;;4.43;4.20;;;27.10;76.10;;;;;;5053034;28;20505;-90
2022/07/25 00:08:39;;;;;;;4.40;4.20;;;27.10;76.10;;;;;;5053175;28;20465;-90
2022/07/25 00:11:06;;;;;;;4.80;4.50;;;27.10;76.10;;;;;;5035284;28;20457;-90
2022/07/25 00:13:34;;;;;;;3.50;3.30;;;27.10;76.10;;;;;;5053033;28;20476;-90
2022/07/25 00:16:02;;;;;;;4.23;3.20;;;27.10;76.10;;;;;;5052933;28;20988;-89
2022/07/25 00:18:29;;;;;;;4.20;4.00;;;27.10;76.10;;;;;;5052817;28;20529;-89
2022/07/25 00:20:56;;;;;;;4.03;3.83;;;27.10;76.20;;;;;;5052908;28;20454;-90
2022/07/25 00:23:23;;;;;;;4.50;4.20;;;27.10;76.20;;;;;;5053072;28;20473;-90
2022/07/25 00:25:50;;;;;;;4.17;3.97;;;27.10;76.20;;;;;;5052819;28;20481;-90
2022/07/25 00:28:16;;;;;;;4.33;4.13;;;27.10;76.30;;;;;;5052893;28;20488;-89
2022/07/25 00:30:43;;;;;;;3.80;3.50;;;27.10;76.30;;;;;;5053145;28;20446;-89
2022/07/25 00:33:12;;;;;;;3.47;3.27;;;27.10;76.30;;;;;;5053135;28;20482;-90
2022/07/25 00:35:39;;;;;;;3.60;3.40;;;27.10;76.30;;;;;;5052827;28;21012;-90
2022/07/25 00:38:05;;;;;;;3.87;3.67;;;27.10;76.30;;;;;;5052848;28;20524;-90
2022/07/25 00:40:32;;;;;;;4.10;3.90;;;27.10;76.20;;;;;;5052696;28;20525;-89
2022/07/25 00:42:59;;;;;;;4.10;3.90;;;27.10;76.10;;;;;;5053034;28;20446;-90
2022/07/25 00:45:26;;;;;;;3.57;3.37;;;27.10;75.90;;;;;;5053102;28;20497;-90
2022/07/25 00:47:53;;;;;;;4.40;4.10;;;27.10;75.70;;;;;;5054967;28;21391;-90
2022/07/25 00:50:23;;;;;;;3.40;3.20;;;27.10;75.50;;;;;;5056535;28;20851;-90
2022/07/25 00:52:50;;;;;;;3.77;3.57;;;27.10;75.30;;;;;;5056683;28;20761;-89
2022/07/25 00:55:17;;;;;;;3.20;3.00;;;27.10;75.10;;;;;;5056573;28;20793;-90
2022/07/25 00:57:44;;;;;;;3.80;3.60;;;27.10;75.00;;;;;;5056049;28;20444;-90
2022/07/25 01:00:14;;;;;;;3.90;3.60;;;27.10;74.80;;;;;;5056108;28;20617;-90
2022/07/25 01:02:42;;;;;;;3.70;3.50;;;27.10;74.70;;;;;;5056067;28;20492;-90
2022/07/25 01:05:09;;;;;;;3.77;3.57;;;27.10;74.50;;;;;;5056024;28;20533;-90
2022/07/25 01:07:39;;;;;;;3.50;3.30;;;27.10;74.40;;;;;;5055717;28;20500;-89
2022/07/25 01:10:07;;;;;;;4.07;3.87;;;27.10;74.30;;;;;;5056094;28;20486;-89
2022/07/25 01:12:44;;;;;;;3.37;3.17;;;27.10;74.20;;;;;;5055903;28;20528;-90
2022/07/25 01:15:11;;;;;;;3.90;3.70;;;27.10;74.00;;;;;;5056290;28;20521;-90
2022/07/25 01:17:38;;;;;;;3.67;3.37;;;27.10;74.00;;;;;;5056027;28;20535;-88
2022/07/25 01:20:06;;;;;;;3.60;3.40;;;27.10;74.80;;;;;;5056122;28;20801;-90
2022/07/25 01:22:34;;;;;;;2.77;2.67;;;27.10;73.90;;;;;;5055335;28;20513;-90
2022/07/25 01:25:01;;;;;;;3.90;3.70;;;27.10;73.90;;;;;;5055771;28;20544;-90
2022/07/25 01:27:28;;;;;;;4.07;3.77;;;27.10;73.80;;;;;;5055435;28;20497;-90
2022/07/25 01:29:54;;;;;;;4.00;3.67;;;27.10;74.70;;;;;;5055450;28;20548;-90
2022/07/25 01:32:21;;;;;;;3.47;3.27;;;27.10;73.80;;;;;;5055696;28;20477;-90
2022/07/25 01:34:48;;;;;;;3.30;3.10;;;27.10;74.60;;;;;;5055478;28;20480;-89
2022/07/25 01:37:15;;;;;;;3.80;3.60;;;27.10;73.80;;;;;;5055600;28;20452;-90
2022/07/25 01:39:43;;;;;;;3.23;3.00;;;27.10;73.70;;;;;;5055718;28;20481;-90
2022/07/25 01:42:10;;;;;;;3.40;3.20;;;27.10;73.70;;;;;;5055563;28;20557;-90
2022/07/25 01:44:37;;;;;;;3.37;3.17;;;27.10;73.60;;;;;;5055534;28;20473;-89
2022/07/25 01:47:04;;;;;;;3.60;3.40;;;27.10;73.70;;;;;;5055211;28;20532;-90
2022/07/25 01:49:31;;;;;;;3.27;3.07;;;27.10;73.60;;;;;;5055171;28;20466;-90
2022/07/25 01:51:58;;;;;;;3.10;2.90;;;27.10;73.60;;;;;;5055058;28;20484;-89
2022/07/25 01:54:25;;;;;;;3.20;3.00;;;27.10;73.60;;;;;;5055449;28;20453;-90
2022/07/25 01:56:53;;;;;;;3.83;3.53;;;27.10;73.60;;;;;;5055297;28;20446;-90
2022/07/25 01:59:20;;;;;;;3.53;3.33;;;27.10;73.60;;;;;;5054160;28;20462;-89
2022/07/25 02:01:47;;;;;;;3.70;3.50;;;27.10;73.60;;;;;;5055051;28;20521;-89
2022/07/25 02:04:13;;;;;;;3.10;2.90;;;27.10;73.60;;;;;;5054949;28;20957;-90
2022/07/25 02:06:41;;;;;;;3.40;3.20;;;27.10;73.60;;;;;;5054934;28;20564;-89
2022/07/25 02:09:08;;;;;;;3.13;2.93;;;27.10;73.60;;;;;;5055227;28;20441;-90
2022/07/25 02:11:35;;;;;;;3.40;3.20;;;27.10;73.50;;;;;;5054869;28;20452;-90
2022/07/25 02:14:04;;;;;;;3.43;3.23;;;27.10;73.60;;;;;;5054857;28;20469;-90
2022/07/25 02:16:31;;;;;;;3.77;3.57;;;27.10;73.50;;;;;;5054810;28;20441;-89
2022/07/25 02:18:58;;;;;;;3.43;3.23;;;27.10;73.50;;;;;;5054684;28;20549;-89
2022/07/25 02:21:25;;;;;;;3.70;3.50;;;27.10;73.40;;;;;;5055525;28;20540;-90
2022/07/25 02:23:53;;;;;;;3.83;3.63;;;27.10;73.40;;;;;;5054831;28;20438;-90
2022/07/25 02:26:19;;;;;;;3.57;3.37;;;27.10;73.40;;;;;;5054641;28;20441;-90
2022/07/25 02:28:46;;;;;;;3.57;3.37;;;27.00;74.10;;;;;;5054431;28;20520;-90
2022/07/25 02:31:15;;;;;;;3.70;3.50;;;27.10;73.40;;;;;;5054488;28;20481;-90
2022/07/25 02:33:41;;;;;;;3.47;3.27;;;27.00;73.20;;;;;;5054659;28;20474;-89
2022/07/25 02:36:09;;;;;;;3.30;3.10;;;27.10;73.30;;;;;;5054309;28;20441;-89
2022/07/25 02:38:36;;;;;;;3.30;3.10;;;27.10;73.30;;;;;;5054377;28;20984;-90
2022/07/25 02:41:04;;;;;;;3.10;2.90;;;27.00;73.20;;;;;;5054360;28;20507;-89
2022/07/25 02:43:31;;;;;;;3.60;3.40;;;27.00;73.20;;;;;;5019944;28;20917;-89
2022/07/25 02:45:58;;;;;;;3.57;3.37;;;27.10;73.30;;;;;;5036461;28;20525;-89
2022/07/25 02:48:26;;;;;;;3.50;3.30;;;27.10;73.30;;;;;;5054121;28;20914;-89
2022/07/25 02:50:53;;;;;;;3.27;3.07;;;27.10;73.20;;;;;;5054044;28;20550;-89
2022/07/25 02:53:20;;;;;;;3.87;3.67;;;27.10;73.20;;;;;;5054038;28;20525;-89
2022/07/25 02:55:47;;;;;;;2.93;2.73;;;27.00;73.10;;;;;;5053954;28;20558;-90
2022/07/25 02:58:14;;;;;;;3.50;3.30;;;27.10;73.10;;;;;;5053711;28;20462;-89
2022/07/25 03:00:41;;;;;;;3.03;2.83;;;27.10;73.20;;;;;;5053783;28;20475;-90
2022/07/25 03:03:08;;;;;;;3.40;3.20;;;27.10;73.10;;;;;;5053794;28;20477;-89
2022/07/25 03:05:36;;;;;;;3.63;3.43;;;27.00;73.00;;;;;;5053821;28;20474;-90
2022/07/25 03:08:03;;;;;;;3.30;3.10;;;27.00;73.00;;;;;;5053665;28;20585;-90
2022/07/25 03:10:30;;;;;;;3.50;3.30;;;27.10;73.10;;;;;;5053631;28;20444;-90
2022/07/25 03:12:57;;;;;;;3.67;3.47;;;27.10;73.20;;;;;;5053950;28;20469;-89
2022/07/25 03:15:24;;;;;;;3.97;3.67;;;27.10;73.20;;;;;;5053542;28;20532;-89
2022/07/25 03:17:50;;;;;;;3.27;3.07;;;27.10;73.20;;;;;;5053765;28;20545;-90
2022/07/25 03:20:17;;;;;;;3.60;3.40;;;27.10;73.20;;;;;;5054389;28;20537;-90
2022/07/25 03:22:46;;;;;;;3.67;3.47;;;27.00;73.20;;;;;;5053645;28;20481;-89
2022/07/25 03:25:12;;;;;;;3.30;3.10;;;27.10;74.10;;;;;;5053870;28;20452;-90
2022/07/25 03:27:39;;;;;;;3.20;3.00;;;27.10;73.20;;;;;;5053247;28;20528;-89
2022/07/25 03:30:07;;;;;;;3.77;3.57;;;27.00;73.10;;;;;;5053326;28;20523;-89
2022/07/25 03:32:34;;;;;;;3.50;3.30;;;27.10;73.30;;;;;;5053422;28;20473;-89
2022/07/25 03:35:01;;;;;;;3.57;3.37;;;27.10;73.30;;;;;;5053420;28;20439;-90
2022/07/25 03:37:28;;;;;;;3.60;3.40;;;27.10;73.30;;;;;;5053310;28;20457;-89
2022/07/25 03:39:56;;;;;;;3.10;2.90;;;27.10;73.30;;;;;;5053279;28;20445;-89
2022/07/25 03:42:23;;;;;;;3.43;3.23;;;27.00;73.20;;;;;;5035620;28;20921;-89
2022/07/25 03:44:50;;;;;;;3.30;3.10;;;27.10;73.40;;;;;;5053233;28;20445;-89
2022/07/25 03:47:17;;;;;;;4.07;3.77;;;27.10;73.30;;;;;;5053629;28;20438;-90
2022/07/25 03:49:44;;;;;;;3.30;3.10;;;27.10;73.40;;;;;;5053254;28;20533;-90
2022/07/25 03:52:11;;;;;;;3.17;2.97;;;27.10;73.40;;;;;;5053262;28;20564;-89
2022/07/25 03:54:38;;;;;;;2.77;2.60;;;27.10;73.40;;;;;;5053198;28;20964;-90
2022/07/25 03:57:06;;;;;;;3.63;3.43;;;27.10;73.40;;;;;;5053045;28;20446;-90
2022/07/25 03:59:33;;;;;;;3.93;3.70;;;27.00;73.40;;;;;;5053236;28;20494;-89
2022/07/25 04:02:00;;;;;;;2.67;2.57;;;27.10;73.50;;;;;;5053127;28;20506;-90
2022/07/25 04:04:27;;;;;;;4.23;3.93;;;27.00;73.40;;;;;;5053320;28;20484;-88
2022/07/25 04:06:53;;;;;;;3.30;3.10;;;27.10;73.50;;;;;;5053112;28;20476;-88
2022/07/25 04:09:20;;;;;;;3.30;3.10;;;27.10;73.60;;;;;;5053109;28;20517;-89
2022/07/25 04:11:47;;;;;;;3.40;3.20;;;27.10;73.60;;;;;;5053314;28;20445;-90
2022/07/25 04:14:16;;;;;;;3.40;3.20;;;27.10;73.60;;;;;;5068080;28;20789;-89
2022/07/25 04:16:42;;;;;;;4.20;4.00;;;27.10;73.70;;;;;;5073288;28;20451;-88
2022/07/25 04:19:09;;;;;;;3.90;3.70;;;27.10;73.80;;;;;;5073072;28;20531;-89
2022/07/25 04:21:36;;;;;;;3.23;3.03;;;27.10;73.80;;;;;;5073834;28;20444;-89
2022/07/25 04:24:03;;;;;;;3.83;3.60;;;27.10;74.70;;;;;;5077317;28;20494;-89
2022/07/25 04:26:30;;;;;;;3.67;3.47;;;27.10;74.00;;;;;;5076939;28;20498;-89
2022/07/25 04:28:57;;;;;;;4.10;3.83;;;27.10;74.00;;;;;;5076575;28;20575;-90
2022/07/25 04:31:26;;;;;;;3.67;3.47;;;27.10;74.10;;;;;;5076767;28;20476;-90
2022/07/25 04:33:53;;;;;;;3.77;3.57;;;27.00;74.00;;;;;;5077424;28;20437;-90
2022/07/25 04:36:20;;;;;;;3.83;3.63;;;27.00;74.00;;;;;;5077104;28;20997;-91
2022/07/25 04:38:47;;;;;;;4.10;3.80;;;27.00;74.10;;;;;;5077915;28;20995;-92
2022/07/25 04:41:14;;;;;;;4.17;3.70;;;27.10;74.30;;;;;;5077203;28;20499;-92
2022/07/25 04:43:41;;;;;;;4.17;3.90;;;27.00;74.30;;;;;;5076633;28;20476;-93
2022/07/25 04:46:08;;;;;;;3.87;3.57;;;27.00;74.40;;;;;;5076537;28;20440;-93
2022/07/25 04:48:36;;;;;;;3.70;3.40;;;27.00;74.60;;;;;;5076647;28;20523;-93
2022/07/25 04:51:03;;;;;;;4.20;3.80;;;27.10;74.70;;;;;;5076824;28;20535;-93
2022/07/25 04:53:30;;;;;;;4.20;3.90;;;27.10;74.70;;;;;;5076930;28;20444;-93
2022/07/25 04:55:57;;;;;;;4.50;4.13;;;27.00;74.70;;;;;;5076383;28;20884;-93
2022/07/25 04:58:24;;;;;;;4.10;3.80;;;27.10;74.80;;;;;;5076457;28;20548;-92
2022/07/25 05:00:51;;;;;;;3.70;3.40;;;27.00;74.80;;;;;;5076642;28;20472;-90
2022/07/25 05:03:18;;;;;;;3.77;3.50;;;27.10;75.00;;;;;;5076463;28;20444;-91
2022/07/25 05:05:46;;;;;;;4.27;3.57;;;27.10;75.00;;;;;;5076265;28;20516;-95
2022/07/25 05:08:13;;;;;;;3.63;3.33;;;27.10;75.10;;;;;;5076852;28;20574;-86
2022/07/25 05:10:40;;;;;;;4.43;4.03;;;27.10;75.10;;;;;;5076464;28;20452;-94
2022/07/25 05:13:07;;;;;;;5.03;4.10;;;27.00;74.90;;;;;;5077008;28;20445;-95
2022/07/25 05:15:34;;;;;;;4.13;3.73;;;27.00;74.90;;;;;;5076493;28;20530;-89
2022/07/25 05:18:01;;;;;;;3.83;3.57;;;27.00;75.00;;;;;;5076656;28;20853;-94
2022/07/25 05:20:28;;;;;;;2.97;2.77;;;27.10;75.10;;;;;;5076160;28;20447;-94
2022/07/25 05:22:57;;;;;;;4.20;3.90;;;27.10;76.00;;;;;;5076083;28;20476;-92
2022/07/25 05:25:24;;;;;;;3.40;3.20;;;27.10;75.10;;;;;;5075685;28;20444;-89
2022/07/25 05:27:53;;;;;;;3.93;3.53;;;27.10;75.10;;;;;;5075896;28;20444;-89
2022/07/25 05:30:20;;;;;;;3.77;3.50;;;27.00;75.10;;;;;;5075396;28;20456;-89
2022/07/25 05:32:47;;;;;;;3.53;3.33;;;27.00;75.10;;;;;;5075184;28;20488;-89
2022/07/25 05:35:14;;;;;;;4.20;3.90;;;27.00;75.10;;;;;;5062084;28;20481;-89
2022/07/25 05:37:41;;;;;;;3.70;3.50;;;27.10;75.20;;;;;;5055289;28;20525;-89
2022/07/25 05:40:10;;;;;;;4.87;3.27;;;27.10;75.10;;;;;;5055303;28;20456;-89
2022/07/25 05:45:08;;;;;;;4.30;4.00;;;27.10;75.10;;;;;;5058588;28;20531;-90
2022/07/25 05:47:36;;;;;;;3.80;3.50;;;27.10;75.10;;;;;;5055864;28;20454;-88
2022/07/25 05:50:03;;;;;;;3.50;3.27;;;27.00;75.00;;;;;;5055391;28;20477;-90
2022/07/25 05:52:30;;;;;;;5.60;3.83;;;27.10;75.00;;;;;;5055211;28;20446;-91
2022/07/25 05:54:57;;;;;;;3.67;3.37;;;27.00;75.10;;;;;;5055518;28;20449;-91
2022/07/25 05:57:25;;;;;;;3.17;2.97;;;27.00;75.20;;;;;;5055216;28;20438;-91
2022/07/25 05:59:52;;;;;;;4.07;3.80;;;27.10;75.20;;;;;;5054921;28;20527;-91
2022/07/25 06:02:19;;;;;;;3.70;3.50;;;27.00;75.30;;;;;;5055174;28;20473;-91
2022/07/25 06:08:07;;;;;;;4.30;4.00;;;27.10;75.30;;;;;;5055202;28;20405;-91
2022/07/25 06:10:34;;;;;;;4.20;3.90;;;27.00;75.30;;;;;;5055034;28;20810;-90
2022/07/25 06:13:02;;;;;;;3.63;3.40;;;27.00;75.20;;;;;;5055251;28;20442;-91
2022/07/25 06:15:29;;;;;;;4.43;4.13;;;27.10;75.30;;;;;;5055136;28;20456;-90
2022/07/25 06:17:56;;;;;;;3.80;3.60;;;27.00;75.20;;;;;;5055222;28;20469;-91
2022/07/25 06:20:23;;;;;;;3.87;3.57;;;27.10;75.30;;;;;;5055019;28;20857;-84
2022/07/25 06:22:51;;;;;;;3.60;3.40;;;27.10;75.50;;;;;;5048724;28;20452;-88
2022/07/25 06:25:19;;;;;;;4.00;3.70;;;27.10;75.40;;;;;;5054599;28;20916;-86
2022/07/25 06:27:46;;;;;;;4.20;3.90;;;27.10;75.50;;;;;;5054447;28;20544;-87
2022/07/25 06:30:14;;;;;;;4.40;4.00;;;27.00;75.40;;;;;;5054352;28;20991;-85
2022/07/25 06:32:41;;;;;;;4.20;3.90;;;27.10;75.70;;;;;;5054689;28;20529;-89
2022/07/25 06:35:09;;;;;;;4.40;4.00;;;27.10;75.70;;;;;;5046319;28;21019;-86
2022/07/25 06:37:37;;;;;;;4.83;4.33;;;27.10;76.60;;;;;;5039382;28;20501;-88
2022/07/25 06:40:05;;;;;;;4.10;3.80;;;27.10;75.70;;;;;;5037791;28;20949;-86
2022/07/25 06:42:33;;;;;;;5.53;5.00;;;27.10;75.80;;;;;;5053485;28;20446;-85
2022/07/25 06:45:03;;;;;;;4.53;4.13;;;27.10;75.80;;;;;;5053328;28;20473;-86
2022/07/25 06:47:32;;;;;;;4.40;4.00;;;27.10;75.70;;;;;;5053977;28;20869;-88
2022/07/25 06:49:58;;;;;;;4.23;3.83;;;27.10;76.60;;;;;;5053617;28;20496;-88
2022/07/25 06:52:25;;;;;;;4.80;4.10;;;27.10;75.70;;;;;;5054143;28;20454;-85
2022/07/25 06:54:52;;;;;;;4.27;3.97;;;27.10;75.70;;;;;;5054099;28;20446;-85
2022/07/25 06:57:19;;;;;;;3.57;3.30;;;27.10;75.70;;;;;;5053568;28;20506;-86
2022/07/25 06:59:46;;;;;;;3.63;3.43;;;27.10;75.60;;;;;;5053656;28;20442;-84
2022/07/25 07:02:13;;;;;;;4.40;4.00;;;27.10;75.60;;;;;;5053553;28;20540;-88
2022/07/25 07:04:42;;;;;;;4.13;3.80;;;27.10;75.50;;;;;;5053762;28;20454;-85
2022/07/25 07:07:08;;;;;;;4.30;4.00;;;27.10;75.40;;;;;;5053049;28;20442;-85
2022/07/25 07:09:35;;;;;;;4.33;3.90;;;27.10;75.40;;;;;;5053403;28;20853;-87
2022/07/25 07:12:02;;;;;;;3.70;3.50;;;27.10;75.30;;;;;;5053620;28;20446;-87
2022/07/25 07:14:29;;;;;;;3.90;3.60;;;27.10;75.20;;;;;;5053202;28;20456;-84
2022/07/25 07:16:56;;;;;;;3.50;3.30;;;27.10;75.20;;;;;;5052398;28;20454;-86
2022/07/25 07:19:23;;;;;;;3.87;3.60;;;27.10;75.10;;;;;;5053311;28;20445;-90
2022/07/25 07:21:52;;;;;;;3.93;3.53;;;27.10;75.10;;;;;;5053139;28;20532;-86
2022/07/25 07:24:19;;;;;;;3.90;3.60;;;27.10;75.00;;;;;;5053381;28;20537;-87
2022/07/25 07:26:45;;;;;;;4.00;3.70;;;27.10;75.00;;;;;;5053200;28;20473;-87
2022/07/25 07:29:12;;;;;;;3.73;3.53;;;27.10;75.00;;;;;;5053336;28;20606;-86
2022/07/25 07:31:39;;;;;;;4.60;4.20;;;27.10;75.00;;;;;;5053603;28;20545;-87
2022/07/25 07:34:07;;;;;;;4.40;4.00;;;27.10;74.90;;;;;;5053127;28;20445;-86
2022/07/25 07:36:33;;;;;;;4.77;4.20;;;27.10;74.90;;;;;;5053266;28;20533;-87
2022/07/25 07:39:02;;;;;;;4.57;4.27;;;27.10;75.10;;;;;;5053147;28;20970;-88
2022/07/25 07:41:28;;;;;;;4.20;3.80;;;27.10;74.80;;;;;;5053019;28;20940;-89
2022/07/25 07:43:55;;;;;;;4.20;3.90;;;27.10;74.90;;;;;;5052808;28;20564;-86
2022/07/25 07:46:22;;;;;;;4.07;3.77;;;27.10;74.80;;;;;;5053020;28;20525;-88
2022/07/25 07:48:49;;;;;;;4.20;3.90;;;27.10;74.80;;;;;;5052923;28;20488;-89
2022/07/25 07:51:16;;;;;;;3.63;3.43;;;27.10;74.80;;;;;;5053215;28;20485;-89
2022/07/25 07:56:28;;;;;;;3.80;3.50;;;27.10;74.80;;;;;;5053311;28;20927;-90
2022/07/25 07:58:55;;;;;;;4.17;3.43;;;27.10;74.80;;;;;;5057089;28;20488;-88
2022/07/25 08:01:23;;;;;;;3.70;3.40;;;27.10;74.90;;;;;;5057334;28;20472;-89
2022/07/25 08:03:50;;;;;;;5.03;3.80;;;27.10;74.90;;;;;;5057248;28;20448;-89
2022/07/25 08:06:17;;;;;;;3.10;2.90;;;27.10;74.80;;;;;;5057140;28;20809;-88
2022/07/25 08:08:44;;;;;;;4.13;3.73;;;27.10;74.80;;;;;;5056691;28;20441;-86
2022/07/25 08:11:11;;;;;;;4.30;3.90;;;27.10;74.80;;;;;;5056986;28;20445;-88
2022/07/25 08:13:40;;;;;;;4.30;4.00;;;27.10;74.90;;;;;;5056603;28;20533;-87
2022/07/25 08:16:07;;;;;;;3.50;3.20;;;27.10;74.80;;;;;;5056534;28;21035;-87
2022/07/25 08:18:34;;;;;;;4.40;4.10;;;27.10;74.80;;;;;;5056534;28;20537;-85
2022/07/25 08:21:04;;;;;;;3.53;3.23;;;27.10;74.80;;;;;;5056514;28;20540;-85
2022/07/25 08:23:33;;;;;;;4.10;3.70;;;27.10;74.80;;;;;;5053684;28;20848;-85
2022/07/25 08:26:01;;;;;;;4.00;3.70;;;27.10;74.80;;;;;;5047268;28;20462;-85
2022/07/25 08:28:28;;;;;;;3.63;3.43;;;27.10;74.90;;;;;;5048406;28;20485;-85
2022/07/25 08:30:57;;;;;;;3.67;3.47;;;27.10;74.80;;;;;;5041520;28;20493;-90
2022/07/25 08:33:24;;;;;;;4.50;4.10;;;27.10;74.80;;;;;;5042034;28;20450;-84
2022/07/25 08:35:53;;;;;;;3.70;3.40;;;27.30;75.00;;;;;;5051803;28;20460;-87
2022/07/25 08:38:20;;;;;;;4.20;3.90;;;27.10;74.80;;;;;;5045091;28;20504;-85
2022/07/25 08:40:48;;;;;;;4.00;3.77;;;27.10;74.80;;;;;;5036529;28;20481;-90
2022/07/25 08:43:16;;;;;;;3.70;3.40;;;27.10;74.80;;;;;;5036136;28;20548;-85
2022/07/25 08:45:46;;;;;;;3.30;3.00;;;27.20;74.90;;;;;;5036266;28;20878;-86
2022/07/25 08:48:17;;;;;;;4.20;3.90;;;27.20;75.00;;;;;;5036450;28;20481;-87
2022/07/25 08:50:44;;;;;;;3.73;3.53;;;27.20;75.80;;;;;;5036349;28;20561;-89
2022/07/25 08:53:11;;;;;;;3.17;2.97;;;27.20;74.90;;;;;;5035976;28;20453;-88
2022/07/25 08:55:38;;;;;;;3.57;3.37;;;27.10;74.80;;;;;;5036138;28;20446;-86
2022/07/25 08:58:05;;;;;;;3.60;3.40;;;27.20;74.90;;;;;;5035807;28;20473;-87
2022/07/25 09:00:32;;;;;;;4.37;3.97;;;27.20;74.90;;;;;;5035947;28;20481;-87
2022/07/25 09:03:01;;;;;;;4.10;3.70;;;27.20;74.90;;;;;;5035943;28;20482;-87
2022/07/25 09:05:31;;;;;;;3.80;3.50;;;27.20;74.90;;;;;;5035724;28;20450;-88
2022/07/25 09:08:06;;;;;;;3.67;3.37;;;27.20;74.90;;;;;;5035478;28;20450;-88
2022/07/25 09:10:34;;;;;;;3.40;3.10;;;27.20;74.90;;;;;;5035659;28;20517;-84
2022/07/25 09:13:06;;;;;;;4.03;3.67;;;27.20;74.90;;;;;;5035743;28;20509;-89
2022/07/25 09:15:35;;;;;;;3.40;3.20;;;27.20;75.00;;;;;;5035796;28;20478;-87
2022/07/25 09:18:06;;;;;;;3.57;3.37;;;27.20;75.00;;;;;;5035932;28;20521;-87
2022/07/25 09:20:43;;;;;;;4.13;3.40;;;27.20;75.10;;;;;;5035599;28;20443;-88
2022/07/25 09:23:11;;;;;;;3.43;3.13;;;27.20;75.00;;;;;;5035847;28;20461;-85
2022/07/25 09:25:39;;;;;;;4.00;3.70;;;27.20;75.10;;;;;;5035577;28;20489;-88
2022/07/25 09:28:13;;;;;;;3.53;3.30;;;27.20;75.10;;;;;;5035797;28;20498;-85
2022/07/25 09:30:41;;;;;;;3.50;3.30;;;27.20;75.00;;;;;;5035389;28;20494;-84
2022/07/25 09:33:08;;;;;;;3.70;3.40;;;27.20;75.00;;;;;;5034588;28;20922;-87
2022/07/25 09:35:37;;;;;;;3.97;3.63;;;27.20;75.10;;;;;;5034489;28;20481;-87
2022/07/25 09:38:10;;;;;;;4.40;4.10;;;27.20;75.10;;;;;;5035179;28;20450;-83
2022/07/25 09:40:37;;;;;;;3.90;3.60;;;27.20;75.00;;;;;;5035885;28;20521;-85
2022/07/25 09:43:04;;;;;;;3.37;3.17;;;27.20;75.10;;;;;;5035114;28;20546;-87
2022/07/25 09:45:31;;;;;;;3.60;3.30;;;27.20;75.10;;;;;;5035591;28;20439;-87
2022/07/25 09:48:00;;;;;;;3.20;3.00;;;27.20;75.00;;;;;;5035379;28;20481;-83
2022/07/25 09:50:30;;;;;;;3.30;3.10;;;27.20;75.00;;;;;;5035078;28;20581;-87
2022/07/25 09:52:59;;;;;;;4.00;3.70;;;27.20;75.10;;;;;;5035399;28;20996;-84
2022/07/25 09:55:29;;;;;;;4.37;3.97;;;27.20;75.10;;;;;;5035095;28;20516;-87
2022/07/25 09:57:55;;;;;;;3.83;3.53;;;27.20;75.10;;;;;;5034990;28;20561;-86
2022/07/25 10:00:24;;;;;;;3.00;2.80;;;27.20;75.20;;;;;;5035297;28;20450;-87
2022/07/25 10:03:05;;;;;;;3.37;3.17;;;27.20;75.10;;;;;;5034647;28;20509;-87
2022/07/25 10:05:46;;;;;;;3.50;3.30;;;27.20;75.10;;;;;;5035065;28;20435;-86
2022/07/25 10:08:13;;;;;;;3.57;3.37;;;27.20;75.10;;;;;;5034921;28;20541;-85
2022/07/25 10:10:42;;;;;;;3.90;3.60;;;27.20;75.10;;;;;;5034297;28;20493;-83
2022/07/25 10:13:12;;;;;;;3.53;3.33;;;27.20;75.10;;;;;;5034414;28;20443;-85
2022/07/25 10:15:48;;;;;;;3.57;3.37;;;27.20;75.10;;;;;;5034607;28;20441;-86
2022/07/25 10:18:16;;;;;;;3.53;3.23;;;27.20;75.20;;;;;;5034463;28;20473;-86
2022/07/25 10:20:44;;;;;;;3.57;3.37;;;27.20;75.20;;;;;;5033377;28;20469;-86
2022/07/25 10:23:18;;;;;;;3.73;3.47;;;27.20;75.20;;;;;;5034457;28;20474;-86
2022/07/25 10:25:47;;;;;;;3.23;3.03;;;27.20;75.20;;;;;;5034238;28;20492;-89
2022/07/25 10:28:19;;;;;;;3.57;3.27;;;27.20;75.20;;;;;;5034384;28;20462;-86
2022/07/25 10:30:47;;;;;;;4.53;4.17;;;27.20;75.20;;;;;;5034224;28;20497;-87
2022/07/25 10:33:17;;;;;;;3.57;3.27;;;27.20;75.20;;;;;;5033963;28;20925;-81
2022/07/25 10:35:44;;;;;;;3.47;3.17;;;27.20;75.20;;;;;;5034686;28;20979;-83
2022/07/25 10:38:12;;;;;;;3.30;3.10;;;27.20;75.20;;;;;;5034370;28;20505;-87
2022/07/25 10:40:41;;;;;;;3.80;3.60;;;27.20;75.20;;;;;;5034222;28;20526;-84
2022/07/25 10:43:13;;;;;;;3.50;3.20;;;27.20;75.20;;;;;;5033773;28;20474;-84
2022/07/25 10:45:53;;;;;;;3.87;3.60;;;27.20;75.30;;;;;;5032731;28;20889;-83
2022/07/25 10:48:25;;;;;;;3.37;3.17;;;27.20;75.20;;;;;;5051146;28;20452;-88
2022/07/25 10:50:56;;;;;;;3.57;3.27;;;27.20;75.30;;;;;;5053293;28;20552;-83
2022/07/25 10:53:34;;;;;;;3.30;3.10;;;27.20;75.30;;;;;;5052980;28;20837;-84
2022/07/25 10:56:07;;;;;;;3.70;3.50;;;27.30;75.30;;;;;;5053250;28;20474;-83
2022/07/25 10:58:47;;;;;;;3.43;3.20;;;27.20;75.30;;;;;;5052904;28;21047;-83
2022/07/25 11:01:19;;;;;;;5.03;3.37;;;27.30;76.10;;;;;;5053439;28;20878;-84
2022/07/25 11:03:46;;;;;;;3.33;3.13;;;27.20;75.40;;;;;;5052852;28;20493;-83
2022/07/25 11:06:13;;;;;;;3.33;3.03;;;27.20;75.30;;;;;;5053007;28;20444;-83
2022/07/25 11:08:41;;;;;;;3.40;3.10;;;27.30;75.40;;;;;;5053118;28;20875;-83
2022/07/25 11:11:09;;;;;;;3.53;3.27;;;27.20;75.40;;;;;;5053073;28;21074;-83
2022/07/25 11:13:39;;;;;;;3.30;3.10;;;27.30;75.40;;;;;;5052487;28;20469;-84
2022/07/25 11:16:09;;;;;;;3.50;3.20;;;27.30;75.40;;;;;;5051855;28;20999;-83
2022/07/25 11:18:39;;;;;;;3.90;3.37;;;27.20;75.30;;;;;;5051856;28;20488;-83
2022/07/25 11:21:08;;;;;;;4.30;3.90;;;27.30;75.40;;;;;;5052076;28;20873;-84
2022/07/25 11:23:35;;;;;;;3.40;3.20;;;27.30;75.30;;;;;;5052616;28;20532;-83
2022/07/25 11:26:08;;;;;;;4.00;3.80;;;27.20;75.40;;;;;;5052857;28;20473;-83
2022/07/25 11:28:43;;;;;;;3.87;3.27;;;27.30;75.50;;;;;;5052597;28;20516;-83
2022/07/25 11:31:13;;;;;;;3.60;3.30;;;27.30;75.50;;;;;;5052730;28;20532;-83
2022/07/25 11:33:41;;;;;;;4.70;3.50;;;27.30;75.50;;;;;;5053227;28;20533;-83
2022/07/25 11:36:10;;;;;;;3.30;3.10;;;27.20;75.50;;;;;;5052928;28;20449;-83
2022/07/25 11:38:39;;;;;;;6.23;3.80;;;27.30;75.50;;;;;;5052699;28;20449;-83
2022/07/25 11:41:06;;;;;;;4.43;3.30;;;27.30;75.50;;;;;;5052801;28;20482;-83
2022/07/25 11:43:33;;;;;;;3.57;3.27;;;27.30;75.50;;;;;;5051546;28;20552;-83
2022/07/25 11:46:03;;;;;;;3.67;3.37;;;27.30;75.40;;;;;;5052030;28;20986;-83
2022/07/25 11:48:33;;;;;;;3.63;3.40;;;27.30;75.60;;;;;;5051772;28;20445;-83
2022/07/25 11:51:13;;;;;;;3.40;3.20;;;27.30;75.40;;;;;;5051463;28;20488;-83
2022/07/25 11:53:43;;;;;;;3.53;3.27;;;27.30;75.40;;;;;;5051612;28;20445;-83
2022/07/25 11:56:15;;;;;;;5.80;4.10;;;27.30;75.50;;;;;;5051413;28;20528;-83
2022/07/25 11:58:42;;;;;;;3.63;3.33;;;27.30;75.50;;;;;;5052635;28;20465;-83
2022/07/25 12:01:14;;;;;;;3.60;3.40;;;27.30;75.50;;;;;;5052652;28;20532;-83
2022/07/25 12:03:44;;;;;;;3.60;3.30;;;27.30;75.50;;;;;;5052653;28;20493;-83
2022/07/25 12:06:12;;;;;;;4.10;3.80;;;27.30;75.40;;;;;;5052159;28;20513;-83
2022/07/25 12:08:41;;;;;;;3.27;3.07;;;27.30;75.50;;;;;;5052527;28;20861;-83
2022/07/25 12:11:23;;;;;;;2.90;2.70;;;27.30;75.40;;;;;;5052518;28;20529;-83
2022/07/25 12:13:50;;;;;;;2.73;2.63;;;27.40;75.40;;;;;;5052566;28;20449;-83
2022/07/25 12:16:18;;;;;;;3.13;2.93;;;27.30;75.40;;;;;;5052521;28;21002;-83
2022/07/25 12:18:46;;;;;;;3.70;3.40;;;27.30;75.50;;;;;;5052723;28;20441;-83
2022/07/25 12:21:13;;;;;;;3.33;3.13;;;27.30;75.40;;;;;;5052517;28;20874;-83
2022/07/25 12:23:41;;;;;;;3.37;2.70;;;27.30;75.50;;;;;;5051966;28;20448;-83
2022/07/25 12:26:09;;;;;;;3.03;2.83;;;27.30;75.50;;;;;;5052476;28;20438;-83
2022/07/25 12:28:36;;;;;;;2.87;2.67;;;27.30;75.50;;;;;;5052267;28;20466;-83
2022/07/25 12:31:03;;;;;;;3.17;2.97;;;27.30;75.50;;;;;;5052252;28;21075;-83
2022/07/25 12:33:31;;;;;;;3.73;3.53;;;27.30;75.50;;;;;;5052598;28;20450;-83
2022/07/25 12:36:03;;;;;;;3.70;3.50;;;27.30;75.50;;;;;;5072463;28;20432;-92
2022/07/25 12:38:30;;;;;;;3.23;3.03;;;27.30;75.50;;;;;;5072906;28;20528;-86
2022/07/25 12:40:57;;;;;;;3.37;3.17;;;27.30;75.50;;;;;;5072555;28;20502;-87
2022/07/25 12:43:24;;;;;;;3.17;2.87;;;27.30;75.40;;;;;;5074110;28;20538;-87
2022/07/25 12:45:51;;;;;;;3.77;3.57;;;27.30;75.30;;;;;;5076564;28;20801;-85
2022/07/25 12:48:18;;;;;;;3.00;2.83;;;27.30;75.40;;;;;;5076649;28;20464;-83
2022/07/25 12:50:45;;;;;;;3.23;3.03;;;27.30;75.30;;;;;;5075256;28;20476;-82
2022/07/25 12:53:14;;;;;;;4.10;3.30;;;27.30;75.50;;;;;;5076136;28;20440;-82
2022/07/25 12:55:41;;;;;;;2.70;2.50;;;27.30;75.50;;;;;;5075623;28;20483;-82
2022/07/25 12:58:08;;;;;;;2.80;2.60;;;27.30;75.50;;;;;;5075723;28;20456;-82
2022/07/25 13:00:35;;;;;;;5.70;3.00;;;27.30;75.50;;;;;;5075035;28;20973;-82